Time;durP1;ratioP1;P1;durP2;ratioP2;P2;SDS_P1;SDS_P2;PMS_P1;PMS_P2;Temp;Humidity;BMP_temperature;BMP_pressure;BME280_temperature;BME280_humidity;BME280_pressure;Samples;Min_cycle;Max_cycle;Signal;HPM_P1;HPM_P2
2024/01/09 00:03:05;;;;;;;4.80;3.57;;;-0.20;57.80;;;;;;10333586;28;20201;-64
2024/01/09 00:08:08;;;;;;;4.33;3.50;;;-0.20;58.10;;;;;;10333215;28;20243;-64
2024/01/09 00:13:12;;;;;;;5.33;3.67;;;-0.30;59.20;;;;;;10334772;28;20252;-65
2024/01/09 00:18:17;;;;;;;5.77;3.37;;;-0.30;58.80;;;;;;10337102;28;20220;-63
2024/01/09 00:23:21;;;;;;;5.50;3.87;;;-0.40;58.50;;;;;;10334710;28;20220;-64
2024/01/09 00:28:24;;;;;;;4.60;3.33;;;-0.40;57.60;;;;;;10336048;28;20280;-65
2024/01/09 00:33:29;;;;;;;4.37;3.30;;;-0.40;59.30;;;;;;10340622;28;20539;-64
2024/01/09 00:38:33;;;;;;;4.37;3.50;;;-0.40;57.80;;;;;;10340020;28;20216;-64
2024/01/09 00:43:37;;;;;;;4.43;2.93;;;-0.40;57.90;;;;;;10341851;28;20308;-64
2024/01/09 00:48:41;;;;;;;4.97;3.30;;;-0.40;58.40;;;;;;10334311;28;20226;-63
2024/01/09 00:53:45;;;;;;;5.07;3.00;;;-0.40;58.10;;;;;;10343082;28;20267;-64
2024/01/09 00:58:49;;;;;;;5.40;3.00;;;-0.40;57.20;;;;;;10329889;28;20283;-65
2024/01/09 01:03:54;;;;;;;5.37;3.17;;;-0.40;57.20;;;;;;10341264;28;20212;-64
2024/01/09 01:08:57;;;;;;;4.43;3.50;;;-0.50;57.80;;;;;;10342469;28;20326;-65
2024/01/09 01:14:01;;;;;;;4.70;3.10;;;-0.40;57.60;;;;;;10350476;28;20208;-64
2024/01/09 01:19:06;;;;;;;4.20;3.00;;;-0.40;57.70;;;;;;10342358;28;20213;-64
2024/01/09 01:24:10;;;;;;;5.63;3.50;;;-0.50;57.40;;;;;;10343571;28;20205;-64
2024/01/09 01:29:13;;;;;;;5.53;3.33;;;-0.50;56.90;;;;;;10344836;28;20225;-64
2024/01/09 01:34:18;;;;;;;4.13;3.20;;;-0.50;58.20;;;;;;10343277;28;20267;-64
2024/01/09 01:39:22;;;;;;;5.67;3.20;;;-0.50;57.80;;;;;;10347769;28;20218;-64
2024/01/09 01:44:25;;;;;;;6.53;3.63;;;-0.50;57.20;;;;;;10341513;28;20201;-64
2024/01/09 01:49:31;;;;;;;4.53;3.00;;;-0.50;57.60;;;;;;10340745;28;20295;-65
2024/01/09 01:54:36;;;;;;;6.17;3.50;;;-0.50;58.30;;;;;;10342203;28;20209;-65
2024/01/09 01:59:46;;;;;;;5.13;3.33;;;-0.50;61.20;;;;;;10343079;28;20233;-63
2024/01/09 02:04:51;;;;;;;4.50;3.00;;;-0.50;57.00;;;;;;10339876;28;20205;-65
2024/01/09 02:09:55;;;;;;;6.30;3.47;;;-0.40;58.50;;;;;;10335762;28;20268;-64
2024/01/09 02:15:00;;;;;;;5.93;3.43;;;-0.50;57.20;;;;;;10347513;28;20200;-65
2024/01/09 02:20:07;;;;;;;5.17;3.73;;;-0.60;56.80;;;;;;10341666;28;20224;-64
2024/01/09 02:25:11;;;;;;;5.27;3.37;;;-0.60;58.60;;;;;;10349264;28;20208;-65
2024/01/09 02:30:17;;;;;;;4.93;3.33;;;-0.60;58.10;;;;;;10335110;28;20232;-65
2024/01/09 02:35:20;;;;;;;5.17;3.03;;;-0.50;58.80;;;;;;10344032;28;20272;-64
2024/01/09 02:40:24;;;;;;;4.77;3.10;;;-0.50;57.60;;;;;;10339618;28;20229;-65
2024/01/09 02:45:29;;;;;;;4.67;3.07;;;-0.50;57.90;;;;;;10340518;28;20250;-64
2024/01/09 02:50:32;;;;;;;4.77;3.07;;;-0.60;57.70;;;;;;10341478;28;20688;-64
2024/01/09 02:55:36;;;;;;;5.00;3.37;;;-0.60;59.50;;;;;;10335011;28;20565;-65
2024/01/09 03:00:41;;;;;;;4.97;3.30;;;-0.50;58.40;;;;;;10338939;28;20264;-65
2024/01/09 03:05:44;;;;;;;6.00;3.47;;;-0.50;59.30;;;;;;10337043;28;20656;-64
2024/01/09 03:10:48;;;;;;;4.83;3.37;;;-0.50;58.10;;;;;;10344848;28;20318;-65
2024/01/09 03:15:53;;;;;;;5.90;3.53;;;-0.60;57.50;;;;;;10330206;28;20249;-65
2024/01/09 03:20:57;;;;;;;5.87;3.70;;;-0.70;57.30;;;;;;10332768;28;20561;-64
2024/01/09 03:26:00;;;;;;;5.87;3.57;;;-0.70;57.20;;;;;;10340746;28;21606;-64
2024/01/09 03:31:05;;;;;;;6.03;3.57;;;-0.70;57.20;;;;;;10333381;28;20640;-64
2024/01/09 03:36:09;;;;;;;6.50;3.70;;;-0.70;60.90;;;;;;10336764;28;20280;-65
2024/01/09 03:41:13;;;;;;;5.33;3.53;;;-0.70;58.40;;;;;;10337188;28;20224;-64
2024/01/09 03:46:18;;;;;;;4.90;3.30;;;-0.80;57.70;;;;;;10333123;28;20248;-64
2024/01/09 03:51:22;;;;;;;5.07;3.70;;;-0.90;57.70;;;;;;10337618;28;20225;-65
2024/01/09 03:56:25;;;;;;;6.37;3.90;;;-0.80;60.70;;;;;;10340091;28;20275;-64
2024/01/09 04:01:30;;;;;;;6.63;3.80;;;-0.80;60.20;;;;;;10330015;28;20209;-64
2024/01/09 04:06:34;;;;;;;6.70;4.03;;;-0.90;59.80;;;;;;10334465;28;20264;-64
2024/01/09 04:11:43;;;;;;;5.23;3.90;;;-0.90;58.80;;;;;;10324185;28;20253;-65
2024/01/09 04:16:48;;;;;;;5.47;3.90;;;-1.00;61.90;;;;;;10336050;28;20252;-65
2024/01/09 04:21:51;;;;;;;6.27;4.00;;;-0.90;58.50;;;;;;10335451;28;20284;-64
2024/01/09 04:26:55;;;;;;;5.97;4.10;;;-0.90;58.70;;;;;;10341359;28;20291;-64
2024/01/09 04:32:00;;;;;;;6.67;4.30;;;-0.90;58.80;;;;;;10336829;28;20221;-64
2024/01/09 04:37:04;;;;;;;6.60;4.57;;;-0.80;58.40;;;;;;10337646;28;20259;-64
2024/01/09 04:42:07;;;;;;;7.10;4.60;;;-0.80;57.90;;;;;;10341840;28;20204;-65
2024/01/09 04:47:15;;;;;;;5.07;3.47;;;-0.80;59.10;;;;;;10339807;28;20248;-65
2024/01/09 04:52:19;;;;;;;6.57;4.53;;;-0.80;59.70;;;;;;10335560;28;20280;-64
2024/01/09 04:57:22;;;;;;;6.03;4.20;;;-0.80;58.10;;;;;;10341513;28;20221;-64
2024/01/09 05:02:27;;;;;;;7.47;4.40;;;-0.80;59.00;;;;;;10339062;28;20202;-65
2024/01/09 05:07:31;;;;;;;6.27;4.23;;;-0.80;59.00;;;;;;10342913;28;20220;-64
2024/01/09 05:12:34;;;;;;;6.43;4.40;;;-0.70;59.10;;;;;;10337532;28;20260;-64
2024/01/09 05:17:39;;;;;;;5.70;3.90;;;-0.70;58.80;;;;;;10348794;28;20221;-64
2024/01/09 05:22:43;;;;;;;7.47;4.33;;;-0.90;58.30;;;;;;10343572;28;20212;-63
2024/01/09 05:27:47;;;;;;;7.03;4.10;;;-0.90;58.30;;;;;;10343934;28;20228;-63
2024/01/09 05:32:52;;;;;;;7.73;4.57;;;-1.00;58.90;;;;;;10341331;28;20935;-64
2024/01/09 05:37:56;;;;;;;7.17;4.67;;;-1.00;58.30;;;;;;10325359;28;20681;-64
2024/01/09 05:43:17;;;;;;;6.33;4.13;;;-1.00;57.70;;;;;;10341975;28;20263;-63
2024/01/09 05:48:22;;;;;;;7.20;4.83;;;-1.00;58.50;;;;;;10330022;28;20799;-63
2024/01/09 05:53:26;;;;;;;6.37;4.53;;;-1.10;58.30;;;;;;10345615;28;20616;-64
2024/01/09 05:58:30;;;;;;;8.17;4.23;;;-1.10;58.90;;;;;;10339368;28;20252;-68
2024/01/09 06:03:35;;;;;;;7.53;4.63;;;-1.10;57.90;;;;;;10334005;28;20264;-68
2024/01/09 06:08:39;;;;;;;6.60;4.07;;;-1.00;57.80;;;;;;10335341;28;20708;-66
2024/01/09 06:13:42;;;;;;;6.30;4.40;;;-1.00;57.70;;;;;;10339541;28;20206;-67
2024/01/09 06:18:47;;;;;;;8.77;4.93;;;-1.00;58.20;;;;;;10333904;28;20327;-68
2024/01/09 06:23:51;;;;;;;6.97;4.80;;;-0.90;58.00;;;;;;10343232;28;20213;-67
2024/01/09 06:28:55;;;;;;;7.67;4.63;;;-1.00;57.60;;;;;;10331360;28;20244;-67
2024/01/09 06:34:00;;;;;;;7.20;4.57;;;-1.10;59.00;;;;;;10330551;28;20232;-68
2024/01/09 06:39:03;;;;;;;7.50;4.73;;;-1.10;57.70;;;;;;10337859;28;20221;-67
2024/01/09 06:44:07;;;;;;;6.67;4.43;;;-1.10;58.20;;;;;;10334676;28;20252;-68
2024/01/09 06:49:12;;;;;;;8.27;4.47;;;-1.20;57.60;;;;;;10335026;28;20245;-68
2024/01/09 06:54:15;;;;;;;9.10;5.23;;;-1.20;57.60;;;;;;10335611;28;20561;-68
2024/01/09 06:59:19;;;;;;;6.70;4.80;;;-1.20;57.80;;;;;;10325038;28;22117;-69
2024/01/09 07:04:24;;;;;;;9.87;5.30;;;-1.20;58.90;;;;;;10337495;28;20212;-69
2024/01/09 07:09:28;;;;;;;7.70;5.43;;;-1.10;58.10;;;;;;10327975;28;20254;-67
2024/01/09 07:16:38;;;;;;;8.30;5.40;;;-1.10;58.10;;;;;;10591390;27;20541;-66
2024/01/09 07:21:42;;;;;;;8.47;5.33;;;-1.10;57.70;;;;;;10581029;27;20190;-65
2024/01/09 07:26:46;;;;;;;9.30;5.80;;;-1.10;57.80;;;;;;10579136;28;20275;-65
2024/01/09 07:31:50;;;;;;;8.13;5.93;;;-1.10;57.80;;;;;;10569989;27;20194;-65
2024/01/09 07:36:54;;;;;;;9.30;5.63;;;-1.10;57.70;;;;;;10573832;28;20249;-66
2024/01/09 07:41:58;;;;;;;8.73;5.67;;;-1.10;58.50;;;;;;10586216;27;20201;-66
2024/01/09 07:47:03;;;;;;;9.90;5.83;;;-1.10;58.00;;;;;;10578883;27;20251;-66
2024/01/09 07:52:07;;;;;;;7.73;5.80;;;-1.10;58.10;;;;;;10586535;28;20209;-65
2024/01/09 07:57:10;;;;;;;9.97;5.27;;;-1.20;58.20;;;;;;10577697;27;20220;-66
2024/01/09 08:02:28;;;;;;;10.30;6.17;;;-1.10;57.90;;;;;;10574312;27;20594;-65
2024/01/09 08:07:32;;;;;;;7.30;5.67;;;-1.10;57.70;;;;;;10589484;27;20234;-66
2024/01/09 08:12:36;;;;;;;9.27;6.07;;;-1.10;57.40;;;;;;10587610;27;20708;-66
2024/01/09 08:17:43;;;;;;;9.80;5.90;;;-1.10;57.50;;;;;;10575416;28;20282;-66
2024/01/09 08:22:48;;;;;;;8.17;5.57;;;-1.10;58.10;;;;;;10585615;27;20258;-66
2024/01/09 08:27:51;;;;;;;9.67;5.63;;;-1.00;58.00;;;;;;10557542;27;20222;-66
2024/01/09 08:32:56;;;;;;;11.97;5.70;;;-1.10;57.50;;;;;;10555770;28;20253;-66
2024/01/09 08:38:00;;;;;;;8.53;5.50;;;-1.10;58.20;;;;;;10545701;28;20224;-65
2024/01/09 08:43:04;;;;;;;8.37;4.80;;;-1.10;59.30;;;;;;10555231;28;20189;-66
2024/01/09 08:48:09;;;;;;;9.10;5.57;;;-1.10;57.60;;;;;;10543374;28;20260;-66
2024/01/09 08:53:13;;;;;;;9.03;5.43;;;-1.10;57.10;;;;;;10558342;28;20262;-66
2024/01/09 08:58:16;;;;;;;9.70;5.83;;;-1.10;57.20;;;;;;10551831;28;20302;-66
2024/01/09 09:03:21;;;;;;;7.83;4.90;;;-1.10;57.90;;;;;;10552753;28;20225;-65
2024/01/09 09:08:26;;;;;;;8.37;5.30;;;-1.00;60.40;;;;;;10537860;28;20328;-65
2024/01/09 09:13:38;;;;;;;11.53;5.20;;;-1.00;57.40;;;;;;10552101;28;20698;-66
2024/01/09 09:18:44;;;;;;;8.07;5.30;;;-1.10;58.40;;;;;;10538694;28;20271;-66
2024/01/09 09:23:48;;;;;;;8.53;5.40;;;-1.10;58.50;;;;;;10548784;28;20235;-66
2024/01/09 09:28:52;;;;;;;10.30;5.63;;;-1.00;59.40;;;;;;10548573;28;20704;-66
2024/01/09 09:34:14;;;;;;;9.93;6.60;;;-0.90;57.80;;;;;;10539314;28;21042;-64
2024/01/09 09:39:18;;;;;;;9.10;5.40;;;-0.80;57.60;;;;;;10543107;28;20300;-65
2024/01/09 09:44:22;;;;;;;8.17;5.40;;;-0.70;59.00;;;;;;10549883;28;20228;-66
2024/01/09 09:49:27;;;;;;;7.67;5.30;;;-0.70;59.20;;;;;;10546867;28;20261;-65
2024/01/09 09:54:31;;;;;;;8.07;4.70;;;-0.70;58.10;;;;;;10557541;28;20245;-66
2024/01/09 09:59:34;;;;;;;8.17;4.90;;;-0.60;64.30;;;;;;10549784;27;20263;-65
2024/01/09 10:04:47;;;;;;;6.80;4.97;;;-0.50;59.50;;;;;;10548293;28;20638;-66
2024/01/09 10:09:53;;;;;;;8.13;4.93;;;-0.50;57.40;;;;;;10551465;28;20221;-63
2024/01/09 10:15:07;;;;;;;7.10;4.37;;;-0.50;58.90;;;;;;10540284;28;20305;-64
2024/01/09 10:20:16;;;;;;;9.20;5.17;;;-0.40;57.60;;;;;;10549997;28;20221;-64
2024/01/09 10:25:20;;;;;;;7.63;4.73;;;-0.40;57.40;;;;;;10543944;28;20228;-64
2024/01/09 10:30:25;;;;;;;6.53;4.47;;;-0.30;58.90;;;;;;10550163;28;20222;-63
2024/01/09 10:35:30;;;;;;;6.60;4.70;;;-0.20;58.00;;;;;;10550379;28;20279;-64
2024/01/09 10:40:33;;;;;;;7.30;4.57;;;-0.10;58.10;;;;;;10544851;28;20207;-64
2024/01/09 10:45:42;;;;;;;6.20;4.27;;;-0.10;58.10;;;;;;10551021;28;20193;-64
2024/01/09 10:50:48;;;;;;;5.50;4.23;;;0.00;57.60;;;;;;10549698;28;20217;-64
2024/01/09 10:55:53;;;;;;;6.57;4.37;;;0.20;60.80;;;;;;10546636;28;20257;-64
2024/01/09 11:00:56;;;;;;;7.37;4.13;;;0.20;57.80;;;;;;10545191;28;20797;-65
2024/01/09 11:06:04;;;;;;;5.63;4.00;;;0.30;63.40;;;;;;10538291;28;20271;-65
2024/01/09 11:11:13;;;;;;;6.73;4.30;;;0.40;61.70;;;;;;10535570;28;20312;-66
2024/01/09 11:16:20;;;;;;;6.43;4.00;;;0.40;58.20;;;;;;10555032;28;20250;-65
2024/01/09 11:21:28;;;;;;;7.07;4.27;;;0.30;59.90;;;;;;10543749;28;20205;-64
2024/01/09 11:26:34;;;;;;;6.13;3.73;;;0.40;57.70;;;;;;10543832;28;20277;-64
2024/01/09 11:31:43;;;;;;;6.00;3.73;;;0.40;57.20;;;;;;10547647;28;20604;-65
2024/01/09 11:36:48;;;;;;;5.90;3.80;;;0.40;58.00;;;;;;10549207;28;20615;-65
2024/01/09 11:41:51;;;;;;;6.17;3.90;;;0.40;59.30;;;;;;10540161;28;20201;-65
2024/01/09 11:46:55;;;;;;;5.63;3.70;;;0.60;61.40;;;;;;10547910;28;20233;-65
2024/01/09 11:52:00;;;;;;;5.43;3.93;;;0.60;58.30;;;;;;10545710;28;20198;-64
2024/01/09 11:57:04;;;;;;;6.57;4.03;;;0.60;59.40;;;;;;10543754;28;20818;-63
2024/01/09 12:02:08;;;;;;;6.57;3.63;;;0.70;58.00;;;;;;10554359;28;20266;-63
2024/01/09 12:07:13;;;;;;;6.77;5.13;;;0.80;58.60;;;;;;10553129;28;20239;-63
2024/01/09 12:12:22;;;;;;;5.47;3.70;;;0.80;59.80;;;;;;10534296;28;20879;-64
2024/01/09 12:17:33;;;;;;;4.87;3.60;;;0.80;56.80;;;;;;10548848;28;20740;-64
2024/01/09 12:22:40;;;;;;;5.57;3.93;;;0.90;59.80;;;;;;10547657;28;20203;-63
2024/01/09 12:27:47;;;;;;;5.77;3.57;;;1.00;56.60;;;;;;10534703;28;20817;-64
2024/01/09 12:32:52;;;;;;;5.97;4.10;;;1.10;58.20;;;;;;10542434;28;20445;-63
2024/01/09 12:37:57;;;;;;;7.33;4.03;;;1.20;54.90;;;;;;10536451;28;20278;-63
2024/01/09 12:43:11;;;;;;;6.07;4.00;;;1.40;59.90;;;;;;10536704;28;20690;-65
2024/01/09 12:48:15;;;;;;;4.63;3.40;;;1.80;61.30;;;;;;10541501;28;20214;-64
2024/01/09 12:53:20;;;;;;;4.43;3.40;;;2.20;58.70;;;;;;10540570;28;20212;-65
2024/01/09 12:58:23;;;;;;;5.83;3.60;;;2.50;57.30;;;;;;10546569;28;20241;-63
2024/01/09 13:03:27;;;;;;;5.87;3.47;;;2.60;59.70;;;;;;10546930;28;20222;-63
2024/01/09 13:08:45;;;;;;;5.43;3.33;;;2.80;58.70;;;;;;10545272;28;20226;-63
2024/01/09 13:14:01;;;;;;;4.00;3.07;;;3.00;58.70;;;;;;10541142;28;20207;-63
2024/01/09 13:19:09;;;;;;;6.23;3.60;;;3.10;57.80;;;;;;10546389;28;20574;-63
2024/01/09 13:24:21;;;;;;;5.73;3.67;;;3.00;56.50;;;;;;10546679;28;20202;-64
2024/01/09 13:29:27;;;;;;;5.33;3.67;;;2.90;59.70;;;;;;10515153;28;20217;-64
2024/01/09 13:34:51;;;;;;;4.30;3.30;;;2.80;58.90;;;;;;10533751;28;20312;-65
2024/01/09 13:40:02;;;;;;;6.73;3.50;;;2.70;54.00;;;;;;10539447;28;20223;-65
2024/01/09 13:45:16;;;;;;;5.33;3.73;;;2.60;52.60;;;;;;10527962;28;20724;-65
2024/01/09 13:50:25;;;;;;;4.83;3.50;;;2.60;54.90;;;;;;10544670;28;20715;-64
2024/01/09 13:55:54;;;;;;;6.13;4.00;;;2.50;52.80;;;;;;10539483;28;20702;-65
2024/01/09 14:01:00;;;;;;;6.43;3.60;;;2.40;55.50;;;;;;10546389;28;20205;-64
2024/01/09 14:06:15;;;;;;;6.50;3.70;;;2.30;56.50;;;;;;10545513;28;20265;-63
2024/01/09 14:11:35;;;;;;;6.17;3.87;;;2.20;54.40;;;;;;10535276;28;20691;-64
2024/01/09 14:16:39;;;;;;;5.43;3.87;;;2.10;54.30;;;;;;10529889;28;20241;-65
2024/01/09 14:21:49;;;;;;;5.93;4.20;;;2.00;55.40;;;;;;10535001;28;20228;-65
2024/01/09 14:26:59;;;;;;;7.13;5.00;;;1.90;56.40;;;;;;10530698;28;20438;-68
2024/01/09 14:32:12;;;;;;;5.60;4.20;;;1.90;53.50;;;;;;10530564;28;20602;-65
2024/01/09 14:37:21;;;;;;;6.50;3.83;;;1.90;56.60;;;;;;10532265;28;20232;-65
2024/01/09 14:42:29;;;;;;;7.00;4.00;;;1.80;56.40;;;;;;10537379;28;20309;-64
2024/01/09 14:47:38;;;;;;;7.13;4.10;;;1.70;55.50;;;;;;10533252;28;20213;-64
2024/01/09 14:52:42;;;;;;;5.37;3.90;;;1.60;56.10;;;;;;10539643;28;20210;-64
2024/01/09 14:57:55;;;;;;;6.80;4.30;;;1.60;57.70;;;;;;10532173;28;20836;-64
2024/01/09 15:03:01;;;;;;;6.10;4.20;;;1.60;56.60;;;;;;10536266;28;20328;-63
2024/01/09 15:08:13;;;;;;;6.93;4.23;;;1.50;55.30;;;;;;10534372;28;20217;-63
2024/01/09 15:13:33;;;;;;;6.93;5.30;;;1.40;54.40;;;;;;10527406;28;20441;-66
2024/01/09 15:18:37;;;;;;;7.17;5.00;;;1.60;50.60;;;;;;10529433;28;20280;-61
2024/01/09 15:23:40;;;;;;;6.33;4.03;;;1.50;53.40;;;;;;10533328;28;20197;-65
2024/01/09 15:28:45;;;;;;;8.00;4.70;;;1.40;53.00;;;;;;10526078;28;20696;-64
2024/01/09 15:33:50;;;;;;;6.93;4.37;;;1.40;54.50;;;;;;10525944;28;20203;-63
2024/01/09 15:38:56;;;;;;;8.20;4.63;;;1.30;53.00;;;;;;10535128;28;20230;-63
2024/01/09 15:44:06;;;;;;;7.53;4.77;;;1.20;54.10;;;;;;10545122;28;20248;-63
2024/01/09 15:49:15;;;;;;;8.00;4.73;;;1.20;53.20;;;;;;10540881;28;20222;-62
2024/01/09 15:54:28;;;;;;;8.10;4.53;;;1.20;54.90;;;;;;10536211;28;20202;-63
2024/01/09 15:59:41;;;;;;;6.30;4.60;;;1.20;55.50;;;;;;10541805;28;20231;-63
2024/01/09 16:04:44;;;;;;;6.73;4.33;;;1.20;54.70;;;;;;10532726;28;20224;-62
2024/01/09 16:09:48;;;;;;;8.18;5.85;;;1.20;54.20;;;;;;10525478;28;21100;-63
2024/01/09 16:14:56;;;;;;;8.60;4.50;;;1.30;53.90;;;;;;10530646;28;20263;-64
2024/01/09 16:20:06;;;;;;;7.07;4.40;;;1.30;54.80;;;;;;10539485;28;20232;-61
2024/01/09 16:25:11;;;;;;;6.33;4.80;;;1.40;54.10;;;;;;10537035;28;20284;-60
2024/01/09 16:30:16;;;;;;;9.23;5.30;;;1.40;54.20;;;;;;10530046;28;20725;-62
2024/01/09 16:35:23;;;;;;;7.57;5.00;;;1.30;53.20;;;;;;10549633;28;20254;-63
2024/01/09 16:40:34;;;;;;;6.03;4.83;;;1.30;54.80;;;;;;10524695;28;20276;-63
2024/01/09 16:45:48;;;;;;;12.20;5.20;;;1.20;53.30;;;;;;10539940;28;20223;-63
2024/01/09 16:50:54;;;;;;;9.47;4.93;;;1.10;54.30;;;;;;10536726;28;20265;-64
2024/01/09 16:56:03;;;;;;;7.67;5.13;;;1.10;53.50;;;;;;10525724;28;20254;-61
2024/01/09 17:01:08;;;;;;;7.80;5.33;;;1.10;54.90;;;;;;10533104;28;20203;-62
2024/01/09 17:06:11;;;;;;;8.47;5.07;;;1.00;53.70;;;;;;10531726;28;20621;-62
2024/01/09 17:11:15;;;;;;;9.27;6.97;;;0.90;54.50;;;;;;10510072;28;20925;-64
2024/01/09 17:16:21;;;;;;;8.50;5.63;;;1.10;52.30;;;;;;10525978;28;20755;-64
2024/01/09 17:21:25;;;;;;;7.80;5.63;;;1.00;53.40;;;;;;10525763;28;20266;-63
2024/01/09 17:26:29;;;;;;;11.67;5.57;;;1.00;53.70;;;;;;10516883;28;20221;-64
2024/01/09 17:31:34;;;;;;;12.13;5.57;;;0.90;55.00;;;;;;10521173;28;20198;-64
2024/01/09 17:36:38;;;;;;;10.37;5.63;;;0.90;54.30;;;;;;10512206;28;20303;-63
2024/01/09 17:41:42;;;;;;;8.60;5.57;;;0.90;53.30;;;;;;10517941;28;20203;-63
2024/01/09 17:46:47;;;;;;;9.87;5.43;;;0.90;55.00;;;;;;10522735;28;20922;-63
2024/01/09 17:51:50;;;;;;;9.77;5.77;;;0.80;53.50;;;;;;10514109;28;20249;-64
2024/01/09 17:56:54;;;;;;;9.10;5.53;;;0.80;53.80;;;;;;10519649;28;20256;-64
2024/01/09 18:01:59;;;;;;;9.47;5.20;;;0.80;53.70;;;;;;10525689;28;20256;-64
2024/01/09 18:07:03;;;;;;;8.73;5.90;;;0.70;54.20;;;;;;10526207;28;20226;-63
2024/01/09 18:12:07;;;;;;;10.83;6.10;;;0.70;54.50;;;;;;10532288;28;20206;-65
2024/01/09 18:17:12;;;;;;;10.63;6.03;;;0.60;54.10;;;;;;10540957;28;20225;-63
2024/01/09 18:22:33;;;;;;;12.33;6.80;;;0.60;54.80;;;;;;10550819;28;20635;-63
2024/01/09 18:27:36;;;;;;;9.03;5.90;;;0.50;55.50;;;;;;10541085;28;20258;-64
2024/01/09 18:32:44;;;;;;;10.20;6.43;;;0.50;56.00;;;;;;10526981;28;20194;-64
2024/01/09 18:37:58;;;;;;;12.30;6.33;;;0.40;54.80;;;;;;10522882;28;20223;-64
2024/01/09 18:43:04;;;;;;;11.53;6.30;;;0.40;55.30;;;;;;10527424;28;20202;-64
2024/01/09 18:48:13;;;;;;;11.67;7.00;;;0.40;54.70;;;;;;10518181;28;20214;-64
2024/01/09 18:53:17;;;;;;;10.90;6.60;;;0.40;56.50;;;;;;10524887;28;20202;-64
2024/01/09 18:58:23;;;;;;;12.93;6.77;;;0.30;55.30;;;;;;10533036;28;20295;-64
2024/01/09 19:03:29;;;;;;;13.13;6.67;;;0.30;57.10;;;;;;10525728;28;20228;-63
2024/01/09 19:08:36;;;;;;;9.80;6.57;;;0.30;55.30;;;;;;10527618;28;20242;-64
2024/01/09 19:13:47;;;;;;;10.30;6.83;;;0.30;55.30;;;;;;10524577;28;20236;-64
2024/01/09 19:19:00;;;;;;;10.33;6.23;;;0.20;55.50;;;;;;10523934;28;20233;-64
2024/01/09 19:24:07;;;;;;;9.53;6.77;;;0.20;57.20;;;;;;10512195;28;20217;-64
2024/01/09 19:29:16;;;;;;;9.77;6.53;;;0.20;55.40;;;;;;10538213;28;20215;-64
2024/01/09 19:34:27;;;;;;;11.90;7.07;;;0.10;58.50;;;;;;10546056;28;20202;-65
2024/01/09 19:39:34;;;;;;;11.97;7.03;;;0.10;55.20;;;;;;10530442;28;20218;-65
2024/01/09 19:44:41;;;;;;;14.57;6.87;;;0.10;55.10;;;;;;10521350;28;20198;-64
2024/01/09 19:49:49;;;;;;;10.10;6.43;;;0.10;55.20;;;;;;10538549;28;20210;-65
2024/01/09 19:54:53;;;;;;;12.07;7.23;;;0.00;56.30;;;;;;10555825;28;20207;-65
2024/01/09 19:59:56;;;;;;;11.90;6.80;;;0.00;56.70;;;;;;10552598;28;20283;-66
2024/01/09 20:05:03;;;;;;;10.43;7.17;;;0.00;55.30;;;;;;10538860;28;20207;-65
2024/01/09 20:10:12;;;;;;;11.00;7.13;;;0.00;55.70;;;;;;10551874;28;20217;-65
2024/01/09 20:15:23;;;;;;;10.40;7.13;;;0.00;56.00;;;;;;10536717;28;20207;-65
2024/01/09 20:20:28;;;;;;;10.33;6.90;;;-0.10;55.90;;;;;;10518218;28;20222;-65
2024/01/09 20:25:41;;;;;;;12.73;7.80;;;-0.10;55.30;;;;;;10531645;28;20830;-65
2024/01/09 20:30:45;;;;;;;12.17;7.47;;;-0.10;55.30;;;;;;10532953;28;20220;-64
2024/01/09 20:35:54;;;;;;;12.73;7.53;;;-0.10;57.10;;;;;;10556933;27;20199;-65
2024/01/09 20:41:04;;;;;;;12.27;7.33;;;-0.20;55.20;;;;;;10534285;28;20222;-65
2024/01/09 20:46:07;;;;;;;11.50;7.10;;;-0.20;55.40;;;;;;10528927;28;20223;-65
2024/01/09 20:51:12;;;;;;;10.83;7.30;;;-0.20;55.90;;;;;;10526182;28;20182;-67
2024/01/09 20:56:16;;;;;;;10.33;6.67;;;-0.20;57.30;;;;;;10528266;28;20227;-69
2024/01/09 21:01:20;;;;;;;9.73;7.23;;;-0.20;55.60;;;;;;10527894;28;20278;-67
2024/01/09 21:06:25;;;;;;;11.80;7.10;;;-0.20;57.30;;;;;;10527100;28;20223;-69
2024/01/09 21:11:29;;;;;;;12.27;7.10;;;-0.30;56.00;;;;;;10534198;28;20236;-69
2024/01/09 21:16:32;;;;;;;10.10;6.47;;;-0.40;55.90;;;;;;10531633;28;20255;-69
2024/01/09 21:21:37;;;;;;;11.10;6.83;;;-0.40;56.30;;;;;;10522379;28;20218;-68
2024/01/09 21:26:41;;;;;;;10.40;6.90;;;-0.40;55.60;;;;;;10522143;28;20759;-69
2024/01/09 21:31:46;;;;;;;11.00;6.60;;;-0.40;55.40;;;;;;10523086;28;20654;-69
2024/01/09 21:36:55;;;;;;;10.63;6.63;;;-0.30;55.40;;;;;;10527562;28;20275;-69
2024/01/09 21:41:59;;;;;;;9.77;6.57;;;-0.30;55.10;;;;;;10525765;28;20253;-69
2024/01/09 21:47:05;;;;;;;10.33;6.17;;;-0.30;55.00;;;;;;10529111;28;20229;-69
2024/01/09 21:52:14;;;;;;;9.57;6.63;;;-0.30;54.30;;;;;;10520434;28;20206;-68
2024/01/09 21:57:19;;;;;;;10.90;6.10;;;-0.30;54.40;;;;;;10535735;28;20298;-69
2024/01/09 22:02:22;;;;;;;9.50;6.40;;;-0.30;54.60;;;;;;10546424;28;20221;-69
2024/01/09 22:07:27;;;;;;;10.20;6.30;;;-0.20;54.00;;;;;;10529411;28;20217;-69
2024/01/09 22:12:33;;;;;;;9.47;6.50;;;-0.20;53.70;;;;;;10529254;28;20255;-68
2024/01/09 22:17:37;;;;;;;9.30;5.73;;;-0.20;54.90;;;;;;10531807;28;20226;-68
2024/01/09 22:22:50;;;;;;;7.80;5.40;;;-0.20;53.60;;;;;;10547864;28;20191;-69
2024/01/09 22:27:57;;;;;;;11.50;5.97;;;-0.20;54.00;;;;;;10538757;28;20689;-69
2024/01/09 22:33:04;;;;;;;10.03;5.90;;;-0.10;56.10;;;;;;10546847;28;20261;-69
2024/01/09 22:38:15;;;;;;;8.27;5.23;;;-0.10;53.80;;;;;;10535736;28;20240;-69
2024/01/09 22:43:19;;;;;;;8.40;5.20;;;-0.10;54.90;;;;;;10522645;28;20197;-69
2024/01/09 22:48:22;;;;;;;8.83;5.63;;;-0.10;55.50;;;;;;10521403;28;20215;-68
2024/01/09 22:53:27;;;;;;;10.60;6.07;;;-0.10;53.50;;;;;;10523940;28;20203;-69
2024/01/09 22:58:31;;;;;;;8.07;4.97;;;0.00;52.90;;;;;;10536995;28;20222;-69
2024/01/09 23:03:34;;;;;;;9.17;5.30;;;0.00;57.90;;;;;;10545452;28;20258;-68
2024/01/09 23:08:40;;;;;;;7.43;4.37;;;0.00;52.90;;;;;;10556654;28;20247;-68
2024/01/09 23:13:44;;;;;;;7.67;5.17;;;0.00;53.80;;;;;;10539031;28;20309;-68
2024/01/09 23:18:50;;;;;;;8.23;4.50;;;0.00;53.30;;;;;;10534823;28;20573;-69
2024/01/09 23:23:55;;;;;;;9.53;5.10;;;0.00;55.10;;;;;;10553239;28;20799;-70
2024/01/09 23:29:02;;;;;;;10.17;5.63;;;-0.10;52.70;;;;;;10529700;28;20222;-68
2024/01/09 23:34:07;;;;;;;8.83;5.00;;;0.00;53.00;;;;;;10520156;28;20211;-68
2024/01/09 23:39:13;;;;;;;8.53;5.53;;;0.00;52.90;;;;;;10536497;28;20249;-67
2024/01/09 23:44:16;;;;;;;8.23;5.23;;;-0.10;51.90;;;;;;10544726;28;20198;-68
2024/01/09 23:49:25;;;;;;;6.70;4.43;;;0.00;51.80;;;;;;10528465;28;20740;-67
2024/01/09 23:54:30;;;;;;;7.40;4.60;;;0.00;51.60;;;;;;10527080;28;20205;-69
2024/01/09 23:59:34;;;;;;;7.80;4.87;;;0.00;51.40;;;;;;10534642;28;20275;-69
